Terminal Aerodrome Forecast
Issued by NWS Wakefield, VA

Home | Current Version | Previous Version | Text Only | Print | Product List | Glossary On
Versions: 1 2 3 4 5 6 7 8 9 10 11 12 13
000
FTUS41 KAKQ 312300
TAFORF
TAF
KORF 312338Z 0100/0124 17006KT P6SM BKN150
     FM011200 09010KT P6SM OVC100
     FM011800 09012G17KT P6SM OVC080=

USA.gov is the U.S. government's official web portal to all federal, state and local government web resources and services.